Norman, Arkansas
Current Conditions -  °F | °C
As of 9:53 AM on Monday 26 Jan 2015 (Local Time) from KMWT Reporting Station
Clear Clear  
Wind Chill:   Ceiling: Unl
Heat Index:   Visibility: 10mi
Dew Point:   Wind: 7mph
Humidity: 60%   Direction: NA
Pressure: 30.13"   Gusts: NA
Location:  34.46°N, 93.68°W
Report Text: KMWT 261553Z AUTO VRB06KT 10SM CLR 07/00 A3013 RMK AO2 SLP209 T00720000
Loading
Personal Weather Stations






























Interactive Weather Map New forecast layout! Learn more

10-Day Weather Forecast

Advertisements
Track Severe Weather on mobile